createdAt,value
2023-04-29T00:00:17.754Z,46.63
2023-04-29T00:02:47.266Z,40.90
2023-04-29T00:05:17.448Z,43.95
2023-04-29T00:07:47.070Z,46.50
2023-04-29T00:10:16.898Z,44.27
2023-04-29T00:12:46.314Z,46.05
2023-04-29T00:15:15.695Z,45.65
2023-04-29T00:17:45.669Z,45.20
2023-04-29T00:20:15.447Z,48.42
2023-04-29T00:22:45.232Z,46.63
2023-04-29T00:25:14.786Z,46.60
2023-04-29T00:27:44.101Z,48.87
2023-04-29T00:30:13.803Z,55.33
2023-04-29T00:32:44.836Z,52.88
2023-04-29T00:35:14.500Z,54.80
2023-04-29T00:37:43.790Z,55.92
2023-04-29T00:40:15.160Z,56.13
2023-04-29T00:42:44.517Z,50.92
2023-04-29T00:45:13.859Z,52.13
2023-04-29T00:47:43.199Z,58.00
2023-04-29T00:50:12.651Z,60.73
2023-04-29T00:52:41.924Z,61.02
2023-04-29T00:55:14.503Z,56.53
2023-04-29T01:00:13.872Z,52.38
2023-04-29T01:02:43.516Z,52.48
2023-04-29T01:05:13.229Z,57.03
2023-04-29T01:07:57.881Z,55.33
2023-04-29T01:10:33.731Z,49.10
2023-04-29T01:13:11.922Z,51.98
2023-04-29T01:15:59.739Z,52.23
2023-04-29T01:18:31.144Z,59.48
2023-04-29T01:21:01.692Z,51.50
2023-04-29T01:23:31.718Z,52.65
2023-04-29T01:26:01.676Z,52.53
2023-04-29T01:28:38.428Z,54.50
2023-04-29T01:31:20.225Z,53.75
2023-04-29T01:34:07.879Z,57.00
2023-04-29T01:36:46.800Z,60.80
2023-04-29T01:39:28.346Z,49.38
2023-04-29T01:44:32.377Z,56.77
2023-04-29T01:47:02.937Z,63.75
2023-04-29T01:49:38.193Z,57.13
2023-04-29T01:52:08.467Z,62.35
2023-04-29T01:54:39.876Z,56.20
2023-04-29T01:57:09.908Z,58.65
2023-04-29T01:59:42.051Z,54.88
2023-04-29T02:02:21.417Z,59.50
2023-04-29T02:04:52.714Z,56.83
2023-04-29T02:07:22.742Z,59.23
2023-04-29T02:09:52.453Z,62.78
2023-04-29T02:12:23.910Z,61.23
2023-04-29T02:14:55.912Z,61.55
2023-04-29T02:17:26.712Z,58.45
2023-04-29T02:19:56.063Z,60.15
2023-04-29T02:22:25.580Z,54.48
2023-04-29T02:24:56.613Z,60.15
2023-04-29T02:27:26.702Z,59.33
2023-04-29T02:29:56.131Z,59.90
2023-04-29T02:32:26.949Z,64.95
2023-04-29T02:34:56.319Z,61.23
2023-04-29T02:37:25.691Z,60.67
2023-04-29T02:39:55.188Z,60.15
2023-04-29T02:42:25.029Z,51.88
2023-04-29T02:44:54.572Z,52.98
2023-04-29T02:47:23.986Z,61.48
2023-04-29T02:49:53.904Z,64.80
2023-04-29T02:52:23.664Z,65.55
2023-04-29T02:54:53.110Z,65.12
2023-04-29T02:57:22.490Z,58.30
2023-04-29T02:59:52.030Z,63.85
2023-04-29T03:02:21.605Z,61.55
2023-04-29T03:04:53.338Z,58.70
2023-04-29T03:07:23.123Z,60.40
2023-04-29T03:09:54.888Z,64.75
2023-04-29T03:12:25.063Z,54.80
2023-04-29T03:14:54.541Z,58.52
2023-04-29T03:17:24.980Z,59.53
2023-04-29T03:19:54.829Z,60.25
2023-04-29T03:22:24.470Z,55.58
2023-04-29T03:24:54.068Z,50.58
2023-04-29T03:27:23.933Z,47.93
2023-04-29T03:29:53.876Z,49.30
2023-04-29T03:32:24.097Z,48.48
2023-04-29T03:34:54.771Z,51.48
2023-04-29T03:37:38.850Z,45.88
2023-04-29T03:40:15.747Z,43.13
2023-04-29T03:42:45.376Z,52.85
2023-04-29T03:45:15.000Z,44.10
2023-04-29T03:47:44.435Z,45.28
2023-04-29T03:50:14.300Z,40.85
2023-04-29T03:52:43.654Z,41.55
2023-04-29T03:55:14.914Z,42.38
2023-04-29T03:57:44.941Z,48.70
2023-04-29T04:00:15.464Z,46.05
2023-04-29T04:02:49.603Z,41.58
2023-04-29T04:05:23.724Z,44.25
2023-04-29T04:07:55.221Z,43.13
2023-04-29T04:10:42.587Z,37.58
2023-04-29T04:13:14.249Z,39.73
2023-04-29T04:15:45.959Z,45.63
2023-04-29T04:18:15.330Z,42.65
2023-04-29T04:20:44.757Z,44.67
2023-04-29T04:23:15.082Z,40.63
2023-04-29T04:25:49.353Z,52.10
2023-04-29T04:28:36.449Z,43.28
2023-04-29T04:31:08.277Z,48.70
2023-04-29T04:33:38.106Z,40.48
2023-04-29T04:36:08.157Z,42.38
2023-04-29T04:38:37.544Z,42.10
2023-04-29T04:41:08.982Z,46.70
2023-04-29T04:43:41.093Z,44.45
2023-04-29T04:46:14.332Z,41.45
2023-04-29T04:48:48.153Z,41.73
2023-04-29T04:51:18.186Z,41.73
2023-04-29T04:53:47.675Z,43.10
2023-04-29T04:56:22.207Z,41.73
2023-04-29T04:58:51.731Z,45.75
2023-04-29T05:01:21.465Z,44.77
2023-04-29T05:03:50.999Z,44.85
2023-04-29T05:06:20.699Z,46.90
2023-04-29T05:08:51.212Z,39.33
2023-04-29T05:11:22.092Z,41.50
2023-04-29T05:16:21.665Z,38.38
2023-04-29T05:18:51.016Z,38.88
2023-04-29T05:21:20.682Z,38.60
2023-04-29T05:23:50.304Z,40.25
2023-04-29T05:26:19.809Z,42.75
2023-04-29T05:28:49.715Z,39.18
2023-04-29T05:31:21.192Z,40.17
2023-04-29T05:33:50.581Z,41.55
2023-04-29T05:36:20.997Z,40.95
2023-04-29T05:38:50.332Z,38.15
2023-04-29T05:41:21.628Z,38.17
2023-04-29T05:43:52.953Z,40.95
2023-04-29T05:46:23.305Z,41.98
2023-04-29T05:48:52.828Z,40.25
2023-04-29T05:51:22.449Z,38.70
2023-04-29T05:53:51.779Z,37.73
2023-04-29T05:56:22.458Z,39.35
2023-04-29T05:58:52.149Z,35.63
2023-04-29T06:01:21.813Z,43.42
2023-04-29T06:03:51.447Z,37.05
2023-04-29T06:06:26.137Z,38.63
2023-04-29T06:08:57.572Z,38.28
2023-04-29T06:11:29.208Z,40.15
2023-04-29T06:13:58.551Z,36.23
2023-04-29T06:16:28.024Z,36.17
2023-04-29T06:18:57.413Z,40.80
2023-04-29T06:21:28.141Z,39.53
2023-04-29T06:23:57.375Z,41.20
2023-04-29T06:26:27.413Z,42.60
2023-04-29T06:28:57.119Z,45.58
2023-04-29T06:31:27.883Z,42.73
2023-04-29T06:33:58.883Z,42.45
2023-04-29T06:36:29.695Z,45.85
2023-04-29T06:39:00.828Z,46.65
2023-04-29T06:41:36.965Z,46.85
2023-04-29T06:44:24.501Z,45.17
2023-04-29T06:46:55.714Z,47.98
2023-04-29T06:49:26.888Z,47.83
2023-04-29T06:51:56.424Z,48.68
2023-04-29T06:54:28.551Z,47.05
2023-04-29T06:56:58.460Z,44.15
2023-04-29T06:59:27.717Z,45.48
2023-04-29T07:01:57.234Z,43.13
2023-04-29T07:04:26.607Z,41.73
2023-04-29T07:06:56.274Z,42.50
2023-04-29T07:09:27.203Z,41.15
2023-04-29T07:11:56.510Z,44.27
2023-04-29T07:14:25.901Z,37.48
2023-04-29T07:16:57.991Z,40.67
2023-04-29T07:19:27.940Z,40.92
2023-04-29T07:21:58.336Z,36.40
2023-04-29T07:24:27.812Z,38.75
2023-04-29T07:26:57.326Z,39.18
2023-04-29T07:29:26.698Z,37.38
2023-04-29T07:31:56.039Z,40.50
2023-04-29T07:34:26.073Z,33.88
2023-04-29T07:36:56.331Z,33.63
2023-04-29T07:39:25.965Z,32.78
2023-04-29T07:41:57.248Z,35.15
2023-04-29T07:44:27.714Z,31.42
2023-04-29T07:46:56.985Z,36.13
2023-04-29T07:49:26.616Z,35.17
2023-04-29T07:51:56.195Z,33.28
2023-04-29T07:54:25.954Z,34.30
2023-04-29T07:56:55.714Z,37.00
2023-04-29T07:59:25.163Z,33.45
2023-04-29T08:01:54.709Z,33.98
2023-04-29T08:04:24.640Z,32.75
2023-04-29T08:07:08.298Z,30.65
2023-04-29T08:09:38.136Z,29.45
2023-04-29T08:12:09.950Z,28.57
2023-04-29T08:14:41.121Z,29.20
2023-04-29T08:17:10.561Z,33.83
2023-04-29T08:19:39.868Z,28.02
2023-04-29T08:22:10.911Z,33.42
2023-04-29T08:24:41.743Z,33.95
2023-04-29T08:27:11.476Z,27.32
2023-04-29T08:29:40.756Z,29.02
2023-04-29T08:32:10.519Z,25.30
2023-04-29T08:34:41.780Z,28.83
2023-04-29T08:37:12.187Z,23.52
2023-04-29T08:39:43.143Z,25.23
2023-04-29T08:42:12.587Z,28.60
2023-04-29T08:44:42.544Z,26.35
2023-04-29T08:47:13.561Z,33.90
2023-04-29T08:49:42.866Z,30.43
2023-04-29T08:52:12.288Z,29.98
2023-04-29T08:54:42.061Z,27.17
2023-04-29T08:57:12.662Z,23.92
2023-04-29T08:59:43.940Z,25.60
2023-04-29T09:02:15.172Z,25.50
2023-04-29T09:05:08.998Z,27.87
2023-04-29T09:07:40.064Z,26.65
2023-04-29T09:10:10.928Z,27.90
2023-04-29T09:12:40.424Z,28.20
2023-04-29T09:15:10.977Z,30.12
2023-04-29T09:17:46.201Z,22.30
2023-04-29T09:20:25.608Z,24.23
2023-04-29T09:22:59.892Z,21.02
2023-04-29T09:25:29.961Z,21.42
2023-04-29T09:27:59.510Z,19.82
2023-04-29T09:30:30.326Z,18.77
2023-04-29T09:33:10.460Z,20.30
2023-04-29T09:35:42.408Z,18.45
2023-04-29T09:38:13.698Z,24.50
2023-04-29T09:40:58.168Z,17.87
2023-04-29T09:43:18.288Z,18.40
2023-04-29T09:45:49.064Z,20.75
2023-04-29T09:48:18.764Z,18.37
2023-04-29T09:50:51.333Z,19.73
2023-04-29T09:56:05.488Z,15.45
2023-04-29T09:58:38.220Z,13.90
2023-04-29T10:01:08.347Z,16.10
2023-04-29T10:03:39.328Z,20.05
2023-04-29T10:06:09.350Z,17.32
2023-04-29T10:08:41.763Z,15.80
2023-04-29T10:11:12.697Z,15.13
2023-04-29T10:13:44.368Z,12.15
2023-04-29T10:16:30.934Z,11.67
2023-04-29T10:19:03.976Z,11.35
2023-04-29T10:21:33.440Z,14.23
2023-04-29T10:24:03.950Z,14.63
2023-04-29T10:26:33.709Z,13.25
2023-04-29T10:29:03.591Z,27.80
2023-04-29T10:31:34.037Z,17.35
2023-04-29T10:34:05.819Z,16.48
2023-04-29T10:36:35.296Z,14.58
2023-04-29T10:39:06.723Z,13.32
2023-04-29T10:41:47.326Z,16.12
2023-04-29T10:44:17.120Z,14.65
2023-04-29T10:46:46.571Z,12.23
2023-04-29T10:49:16.854Z,12.88
2023-04-29T10:51:47.148Z,13.32
2023-04-29T10:54:21.966Z,11.45
2023-04-29T10:56:54.405Z,13.70
2023-04-29T10:59:36.650Z,12.68
2023-04-29T11:02:06.392Z,14.13
2023-04-29T11:04:37.694Z,14.00
2023-04-29T11:07:07.424Z,13.98
2023-04-29T11:09:38.849Z,12.18
2023-04-29T11:12:11.076Z,10.85
2023-04-29T11:14:46.526Z,11.57
2023-04-29T11:17:17.454Z,11.20
2023-04-29T11:19:52.393Z,9.90
2023-04-29T11:22:25.341Z,8.15
2023-04-29T11:25:09.104Z,8.68
2023-04-29T11:27:41.166Z,9.25
2023-04-29T11:30:11.172Z,10.10
2023-04-29T11:32:42.971Z,7.90
2023-04-29T11:35:14.562Z,5.97
2023-04-29T11:37:45.850Z,6.20
2023-04-29T11:40:17.286Z,7.10
2023-04-29T11:42:49.174Z,6.10
2023-04-29T11:45:21.867Z,6.00
2023-04-29T11:47:53.350Z,5.70
2023-04-29T11:50:22.945Z,7.25
2023-04-29T11:52:52.376Z,7.87
2023-04-29T11:55:22.005Z,10.10
2023-04-29T11:57:52.471Z,10.20
2023-04-29T12:00:22.383Z,7.80
2023-04-29T12:02:51.859Z,8.05
2023-04-29T12:05:21.572Z,6.22
2023-04-29T12:07:51.774Z,8.93
2023-04-29T12:10:21.510Z,9.15
2023-04-29T12:12:51.179Z,8.80
2023-04-29T12:15:20.638Z,7.65
2023-04-29T12:17:49.996Z,7.75
2023-04-29T12:20:19.719Z,9.08
2023-04-29T12:22:49.055Z,7.50
2023-04-29T12:25:18.842Z,6.92
2023-04-29T12:27:48.292Z,7.47
2023-04-29T12:30:17.583Z,7.20
2023-04-29T12:32:48.602Z,6.67
2023-04-29T12:35:19.252Z,7.90
2023-04-29T12:37:52.276Z,8.65
2023-04-29T12:40:21.843Z,8.88
2023-04-29T12:42:51.389Z,7.55
2023-04-29T12:45:32.742Z,8.08
2023-04-29T12:48:07.222Z,7.97
2023-04-29T12:50:39.605Z,6.85
2023-04-29T12:53:11.720Z,5.83
2023-04-29T12:55:41.428Z,6.80
2023-04-29T12:58:10.765Z,4.95
2023-04-29T13:00:40.284Z,6.47
2023-04-29T13:03:09.783Z,6.37
2023-04-29T13:05:39.343Z,5.17
2023-04-29T13:08:09.204Z,6.42
2023-04-29T13:10:38.874Z,6.25
2023-04-29T13:19:43.303Z,6.83
2023-04-29T13:21:58.238Z,7.92
2023-04-29T13:24:27.523Z,6.47
2023-04-29T13:26:56.949Z,5.67
2023-04-29T13:29:27.109Z,8.80
2023-04-29T13:31:56.901Z,7.25
2023-04-29T13:34:26.589Z,8.40
2023-04-29T13:37:03.532Z,5.92
2023-04-29T13:39:37.760Z,4.95
2023-04-29T13:42:05.822Z,6.00
2023-04-29T13:44:49.787Z,5.00
2023-04-29T13:47:06.785Z,7.10
2023-04-29T13:50:09.939Z,4.78
2023-04-29T13:52:37.528Z,6.85
2023-04-29T13:54:59.414Z,4.77
2023-04-29T13:59:57.183Z,5.97
2023-04-29T14:02:25.010Z,6.10
2023-04-29T14:04:45.578Z,6.05
2023-04-29T14:07:15.415Z,4.92
2023-04-29T14:09:44.750Z,5.00
2023-04-29T14:12:14.048Z,5.70
2023-04-29T14:14:43.751Z,5.53
2023-04-29T14:17:13.404Z,5.35
2023-04-29T14:23:27.916Z,4.80
2023-04-29T14:26:16.465Z,5.40
2023-04-29T14:28:29.897Z,7.80
2023-04-29T14:30:59.355Z,5.83
2023-04-29T14:33:28.989Z,4.28
2023-04-29T14:35:58.564Z,4.85
2023-04-29T14:38:28.092Z,4.30
2023-04-29T14:40:57.454Z,6.47
2023-04-29T14:43:26.798Z,7.87
2023-04-29T14:45:56.911Z,7.12
2023-04-29T14:48:26.237Z,6.33
2023-04-29T14:50:56.062Z,5.37
2023-04-29T14:53:25.310Z,5.80
2023-04-29T14:55:54.858Z,5.50
2023-04-29T14:58:24.195Z,6.20
2023-04-29T15:00:53.497Z,5.42
2023-04-29T15:03:23.620Z,6.50
2023-04-29T15:05:53.877Z,5.42
2023-04-29T15:08:23.332Z,9.08
2023-04-29T15:10:54.359Z,6.42
2023-04-29T15:13:23.622Z,5.53
2023-04-29T15:15:53.058Z,6.78
2023-04-29T15:18:23.287Z,7.87
2023-04-29T15:20:52.953Z,6.17
2023-04-29T15:23:22.208Z,7.75
2023-04-29T15:25:52.873Z,5.35
2023-04-29T15:28:23.789Z,6.60
2023-04-29T15:30:53.722Z,8.35
2023-04-29T15:33:23.875Z,5.97
2023-04-29T15:35:54.047Z,6.70
2023-04-29T15:38:23.378Z,6.97
2023-04-29T15:40:54.283Z,5.67
2023-04-29T15:43:24.477Z,6.30
2023-04-29T15:45:53.931Z,4.62
2023-04-29T15:48:25.066Z,6.62
2023-04-29T15:50:54.319Z,5.92
2023-04-29T15:53:24.003Z,5.47
2023-04-29T15:55:55.220Z,4.50
2023-04-29T15:58:24.512Z,7.50
2023-04-29T16:00:53.840Z,5.78
2023-04-29T16:03:23.459Z,5.15
2023-04-29T16:05:53.143Z,6.95
2023-04-29T16:08:22.977Z,7.83
2023-04-29T16:10:52.251Z,5.58
2023-04-29T16:13:21.780Z,6.42
2023-04-29T16:15:51.033Z,6.72
2023-04-29T16:18:20.322Z,5.72
2023-04-29T16:20:49.843Z,7.92
2023-04-29T16:23:19.389Z,6.35
2023-04-29T16:25:48.761Z,8.45
2023-04-29T16:28:18.346Z,6.33
2023-04-29T16:30:47.953Z,9.63
2023-04-29T16:33:17.551Z,6.70
2023-04-29T16:35:46.955Z,8.03
2023-04-29T16:38:16.553Z,8.65
2023-04-29T16:40:45.873Z,8.05
2023-04-29T16:43:15.521Z,8.78
2023-04-29T16:45:46.365Z,7.62
2023-04-29T16:48:15.626Z,7.00
2023-04-29T16:50:45.138Z,8.13
2023-04-29T16:53:14.419Z,8.78
2023-04-29T16:55:43.695Z,8.63
2023-04-29T16:58:13.228Z,6.47
2023-04-29T17:00:42.494Z,8.68
2023-04-29T17:03:11.833Z,7.58
2023-04-29T17:05:41.721Z,9.50
2023-04-29T17:08:11.510Z,9.50
2023-04-29T17:10:41.650Z,8.53
2023-04-29T17:13:10.974Z,9.65
2023-04-29T17:15:40.847Z,9.80
2023-04-29T17:18:10.220Z,7.65
2023-04-29T17:20:39.838Z,8.88
2023-04-29T17:23:09.125Z,10.20
2023-04-29T17:25:39.075Z,9.88
2023-04-29T17:28:08.613Z,7.35
2023-04-29T17:30:38.100Z,8.70
2023-04-29T17:33:07.492Z,8.53
2023-04-29T17:35:37.034Z,9.05
2023-04-29T17:38:06.265Z,10.23
2023-04-29T17:40:36.089Z,7.75
2023-04-29T17:43:05.799Z,6.53
2023-04-29T17:45:35.720Z,7.17
2023-04-29T17:48:05.181Z,7.75
2023-04-29T17:50:34.690Z,7.78
2023-04-29T17:53:03.974Z,9.88
2023-04-29T17:55:33.483Z,12.23
2023-04-29T17:58:02.963Z,5.97
2023-04-29T18:00:32.396Z,8.85
2023-04-29T18:03:02.716Z,6.30
2023-04-29T18:05:32.251Z,6.12
2023-04-29T18:08:01.629Z,5.65
2023-04-29T18:10:31.458Z,5.42
2023-04-29T18:13:02.585Z,8.23
2023-04-29T18:15:32.528Z,4.12
2023-04-29T18:18:01.860Z,4.80
2023-04-29T18:20:33.077Z,4.67
2023-04-29T18:23:02.739Z,4.05
2023-04-29T18:25:32.074Z,3.45
2023-04-29T18:28:18.845Z,5.05
2023-04-29T18:30:33.783Z,6.15
2023-04-29T18:33:03.560Z,4.03
2023-04-29T18:35:33.445Z,4.17
2023-04-29T18:38:03.727Z,5.30
2023-04-29T18:40:33.011Z,4.97
2023-04-29T18:43:02.370Z,2.95
2023-04-29T18:45:31.715Z,3.40
2023-04-29T18:48:03.065Z,5.85
2023-04-29T18:50:32.521Z,6.25
2023-04-29T18:53:02.973Z,4.65
2023-04-29T18:55:32.252Z,5.30
2023-04-29T18:58:01.576Z,4.20
2023-04-29T19:00:30.851Z,7.22
2023-04-29T19:03:00.522Z,4.75
2023-04-29T19:05:32.660Z,6.15
2023-04-29T19:08:01.981Z,6.12
2023-04-29T19:10:31.361Z,9.35
2023-04-29T19:13:01.083Z,7.00
2023-04-29T19:15:32.163Z,6.75
2023-04-29T19:18:01.817Z,4.70
2023-04-29T19:20:31.190Z,6.62
2023-04-29T19:23:00.544Z,6.28
2023-04-29T19:25:31.980Z,6.20
2023-04-29T19:28:01.270Z,8.08
2023-04-29T19:30:30.731Z,9.50
2023-04-29T19:33:00.005Z,9.00
2023-04-29T19:35:29.722Z,5.85
2023-04-29T19:37:58.996Z,7.97
2023-04-29T19:40:28.499Z,7.30
2023-04-29T19:42:58.154Z,10.00
2023-04-29T19:45:27.815Z,8.38
2023-04-29T19:47:58.805Z,9.30
2023-04-29T19:50:29.365Z,10.70
2023-04-29T19:52:59.610Z,8.60
2023-04-29T19:55:29.111Z,9.28
2023-04-29T19:57:58.765Z,6.28
2023-04-29T20:00:28.367Z,11.48
2023-04-29T20:02:57.718Z,9.03
2023-04-29T20:05:28.431Z,10.25
2023-04-29T20:07:57.758Z,9.83
2023-04-29T20:10:29.755Z,11.05
2023-04-29T20:12:58.143Z,11.88
2023-04-29T20:15:27.527Z,10.38
2023-04-29T20:17:58.326Z,10.68
2023-04-29T20:20:28.013Z,12.15
2023-04-29T20:22:59.013Z,10.63
2023-04-29T20:25:28.800Z,12.13
2023-04-29T20:27:58.837Z,13.88
2023-04-29T20:30:28.239Z,14.43
2023-04-29T20:32:57.736Z,11.10
2023-04-29T20:35:27.596Z,13.15
2023-04-29T20:37:57.378Z,10.93
2023-04-29T20:40:26.676Z,14.07
2023-04-29T20:42:56.183Z,11.18
2023-04-29T20:45:25.726Z,11.15
2023-04-29T20:47:55.156Z,15.72
2023-04-29T20:50:24.744Z,12.73
2023-04-29T20:52:54.390Z,11.70
2023-04-29T20:55:23.900Z,12.15
2023-04-29T20:57:53.683Z,11.93
2023-04-29T21:00:23.169Z,13.18
2023-04-29T21:02:52.494Z,12.63
2023-04-29T21:05:22.104Z,14.85
2023-04-29T21:07:51.403Z,15.18
2023-04-29T21:10:23.255Z,12.43
2023-04-29T21:12:52.534Z,13.78
2023-04-29T21:15:22.092Z,15.43
2023-04-29T21:17:51.436Z,13.62
2023-04-29T21:20:21.418Z,14.60
2023-04-29T21:22:50.942Z,14.05
2023-04-29T21:25:20.298Z,14.68
2023-04-29T21:27:52.567Z,14.65
2023-04-29T21:30:22.003Z,12.43
2023-04-29T21:32:52.249Z,13.60
2023-04-29T21:35:22.368Z,14.38
2023-04-29T21:37:51.660Z,19.15
2023-04-29T21:40:21.525Z,16.50
2023-04-29T21:42:51.152Z,15.25
2023-04-29T21:45:20.691Z,16.27
2023-04-29T21:47:50.868Z,17.02
2023-04-29T21:50:20.803Z,15.68
2023-04-29T21:52:50.634Z,16.45
2023-04-29T21:55:20.119Z,15.48
2023-04-29T21:57:49.821Z,14.93
2023-04-29T22:00:23.621Z,15.05
2023-04-29T22:02:53.314Z,15.43
2023-04-29T22:05:22.624Z,19.35
2023-04-29T22:07:52.236Z,14.15
2023-04-29T22:10:21.633Z,13.00
2023-04-29T22:12:51.156Z,14.75
2023-04-29T22:15:28.032Z,12.05
2023-04-29T22:17:51.620Z,17.32
2023-04-29T22:20:21.085Z,15.93
2023-04-29T22:22:51.348Z,17.80
2023-04-29T22:25:21.942Z,14.45
2023-04-29T22:27:52.018Z,17.25
2023-04-29T22:30:21.301Z,16.32
2023-04-29T22:32:51.294Z,16.90
2023-04-29T22:35:20.697Z,21.97
2023-04-29T22:37:50.692Z,17.70
2023-04-29T22:40:20.035Z,16.10
2023-04-29T22:42:49.357Z,14.93
2023-04-29T22:45:18.707Z,17.52
2023-04-29T22:47:48.072Z,14.20
2023-04-29T22:50:17.482Z,16.35
2023-04-29T22:52:47.150Z,16.40
2023-04-29T22:55:16.516Z,17.42
2023-04-29T22:57:45.816Z,15.95
2023-04-29T23:00:15.900Z,18.20
2023-04-29T23:02:45.468Z,17.62
2023-04-29T23:05:15.312Z,15.75
2023-04-29T23:07:44.606Z,18.27
2023-04-29T23:10:14.125Z,20.25
2023-04-29T23:12:43.535Z,19.85
2023-04-29T23:15:12.905Z,16.62
2023-04-29T23:17:42.539Z,16.97
2023-04-29T23:20:13.111Z,18.45
2023-04-29T23:22:42.729Z,18.75
2023-04-29T23:25:12.014Z,17.30
2023-04-29T23:27:41.592Z,18.80
2023-04-29T23:30:11.213Z,20.25
2023-04-29T23:32:40.856Z,19.12
2023-04-29T23:35:12.437Z,19.30
2023-04-29T23:37:41.991Z,19.02
2023-04-29T23:40:11.936Z,19.23
2023-04-29T23:42:41.233Z,18.90
2023-04-29T23:45:10.772Z,19.37
2023-04-29T23:47:40.092Z,19.95
2023-04-29T23:50:10.548Z,18.20
2023-04-29T23:52:39.889Z,22.90
2023-04-29T23:55:10.681Z,22.02
2023-04-29T23:57:40.020Z,22.37
